Huvudsida
METAR-TAF:

METAR-TAF

Flygplatser :

Pajas Blancas Airport

Córdoba, Argentina

latitud: 31-19S, longitud: 064-13W, höjd: 484 m

Aktuellt väderrapport

Denna rapport gjordes för 26 minuter sedan, klockan 23:00 UTC
Vind 6 kt från nordost
Temperatur 18°C
Fuktighet 83%
Tryck 1016 hPa
Sikt 10 km eller mer
Inga moln under 1 500 m eller inga cumulonimbus

METAR: SACO 222300Z 05006KT CAVOK 18/15 Q1016 NOSIG

Tid: 20:26 (23:26 UTC)

Väderprognos

Denna rapport gjordes för 6 timmar och 26 minuter sedan, klockan 17:00 UTC
Prognos gäller från 22 kl. 18 UTC till 23 kl. 18 UTC
Vind 10 kt från nord/nordost
Sikt 10 km eller mer
Spridda moln på en höjd av 4000 ft
Få moln på en höjd av 4500 ft
Blir
från 23 kl. 06 UTC till 23 kl. 09 UTC
Vind 5 kt från nord/nordväst
Sikt 10 km eller mer
Spridda moln på en höjd av 3500 ft

TAF: SACO 221700Z 2218/2318 02010KT 9999 SCT040 FEW045 TX28/2318Z TN14/2310Z BECMG 2306/2309 34005KT 9999 SCT035

Aktuella väderrapporter och prognoser från 4000 flygplatser (METAR- och TAF-rapporter).

De tillgängliga stationerna syns som gula och röda prickar på kartan.

För musen över prickarna för att se namnen på stationerna.

Klicka sedan för att få väderrapporter och prognoser.

För att ändra kartan: Klicka på de gröna knapparna med ett svart kors på för att zooma in; den gröna knappen med ett streck på för att zooma ut; eller på de gröna pilarna för angränsande kartor.


METAR-TAF: